createdAt,value
2023-01-06T00:01:21.469Z,100287.97
2023-01-06T00:03:51.947Z,100277.41
2023-01-06T00:06:23.060Z,100297.72
2023-01-06T00:08:52.016Z,100297.50
2023-01-06T00:11:21.205Z,100305.97
2023-01-06T00:13:51.300Z,100306.25
2023-01-06T00:16:21.385Z,100316.56
2023-01-06T00:18:50.575Z,100305.91
2023-01-06T00:21:19.586Z,100326.44
2023-01-06T00:23:48.665Z,100326.22
2023-01-06T00:26:17.631Z,100327.38
2023-01-06T00:28:48.389Z,100331.81
2023-01-06T00:31:18.991Z,100345.28
2023-01-06T00:33:48.054Z,100345.81
2023-01-06T00:36:17.282Z,100343.34
2023-01-06T00:38:46.220Z,100353.06
2023-01-06T00:41:33.302Z,100347.13
2023-01-06T00:44:03.130Z,100360.66
2023-01-06T00:46:34.508Z,100365.19
2023-01-06T00:49:05.782Z,100375.75
2023-01-06T00:51:36.769Z,100374.41
2023-01-06T00:54:07.094Z,100389.97
2023-01-06T00:56:37.732Z,100388.50
2023-01-06T00:59:07.046Z,100399.16
2023-01-06T01:01:37.847Z,100393.63
2023-01-06T01:04:08.148Z,100392.81
2023-01-06T01:06:37.702Z,100391.72
2023-01-06T01:09:07.895Z,100385.31
2023-01-06T01:11:54.322Z,100396.81
2023-01-06T01:14:23.568Z,100401.88
2023-01-06T01:16:53.790Z,100406.13
2023-01-06T01:19:25.525Z,100419.00
2023-01-06T01:21:54.656Z,100423.88
2023-01-06T01:24:24.155Z,100428.03
2023-01-06T01:26:53.241Z,100425.63
2023-01-06T01:29:22.309Z,100427.19
2023-01-06T01:31:51.786Z,100435.97
2023-01-06T01:34:22.619Z,100451.09
2023-01-06T01:36:53.261Z,100442.09
2023-01-06T01:39:25.415Z,100454.13
2023-01-06T01:41:54.913Z,100460.22
2023-01-06T01:44:59.375Z,100463.97
2023-01-06T01:47:42.966Z,100466.44
2023-01-06T01:50:23.796Z,100466.47
2023-01-06T01:52:56.603Z,100475.56
2023-01-06T01:55:26.792Z,100489.97
2023-01-06T01:57:59.313Z,100489.22
2023-01-06T02:00:28.770Z,100482.25
2023-01-06T02:02:58.070Z,100489.81
2023-01-06T02:05:29.290Z,100502.34
2023-01-06T02:07:58.717Z,100512.31
2023-01-06T02:10:27.953Z,100523.69
2023-01-06T02:12:59.679Z,100536.50
2023-01-06T02:15:33.701Z,100530.88
2023-01-06T02:18:35.304Z,100531.84
2023-01-06T02:21:23.781Z,100524.66
2023-01-06T02:24:32.691Z,100534.00
2023-01-06T02:27:40.237Z,100540.66
2023-01-06T02:30:47.211Z,100542.25
2023-01-06T02:33:25.342Z,100554.56
2023-01-06T02:36:15.504Z,100561.50
2023-01-06T02:38:48.873Z,100575.88
2023-01-06T02:41:30.695Z,100578.88
2023-01-06T02:44:03.516Z,100579.91
2023-01-06T02:46:44.406Z,100593.09
2023-01-06T02:49:20.076Z,100591.28
2023-01-06T02:51:56.863Z,100588.63
2023-01-06T02:54:31.001Z,100588.75
2023-01-06T02:57:07.116Z,100600.25
2023-01-06T02:59:38.649Z,100596.22
2023-01-06T03:02:09.495Z,100604.59
2023-01-06T03:04:41.343Z,100599.41
2023-01-06T03:07:11.136Z,100607.66
2023-01-06T03:09:41.221Z,100601.28
2023-01-06T03:12:17.606Z,100603.09
2023-01-06T03:14:49.092Z,100600.34
2023-01-06T03:17:18.266Z,100614.44
2023-01-06T03:19:48.490Z,100612.91
2023-01-06T03:22:19.100Z,100621.28
2023-01-06T03:24:48.427Z,100626.41
2023-01-06T03:27:19.497Z,100620.34
2023-01-06T03:29:48.804Z,100633.53
2023-01-06T03:32:22.324Z,100635.59
2023-01-06T03:35:11.527Z,100632.25
2023-01-06T03:37:48.568Z,100631.66
2023-01-06T03:40:26.094Z,100637.75
2023-01-06T03:43:14.171Z,100645.88
2023-01-06T03:45:54.742Z,100652.41
2023-01-06T03:48:39.255Z,100652.09
2023-01-06T03:51:14.519Z,100649.75
2023-01-06T03:53:48.105Z,100654.75
2023-01-06T03:56:20.438Z,100655.28
2023-01-06T03:58:53.014Z,100656.31
2023-01-06T04:01:25.016Z,100666.34
2023-01-06T04:03:54.597Z,100661.25
2023-01-06T04:06:27.493Z,100671.47
2023-01-06T04:08:56.532Z,100672.59
2023-01-06T04:11:48.627Z,100672.16
2023-01-06T04:14:18.126Z,100668.59
2023-01-06T04:16:47.322Z,100681.88
2023-01-06T04:19:16.493Z,100679.22
2023-01-06T04:21:47.029Z,100679.22
2023-01-06T04:24:16.331Z,100679.22
2023-01-06T04:26:45.412Z,100680.75
2023-01-06T04:29:14.718Z,100689.16
2023-01-06T04:31:43.487Z,100680.06
2023-01-06T04:34:12.808Z,100680.19
2023-01-06T04:36:42.305Z,100678.75
2023-01-06T04:39:12.894Z,100687.78
2023-01-06T04:41:42.039Z,100689.91
2023-01-06T04:44:11.090Z,100679.28
2023-01-06T04:46:39.717Z,100683.78
2023-01-06T04:49:08.879Z,100684.16
2023-01-06T04:51:37.838Z,100686.16
2023-01-06T04:54:07.352Z,100684.63
2023-01-06T04:56:37.959Z,100677.69
2023-01-06T04:59:07.003Z,100673.78
2023-01-06T05:01:36.394Z,100676.47
2023-01-06T05:04:06.329Z,100673.09
2023-01-06T05:06:35.730Z,100674.41
2023-01-06T05:09:04.917Z,100681.13
2023-01-06T05:11:34.328Z,100688.75
2023-01-06T05:14:05.137Z,100682.09
2023-01-06T05:16:35.669Z,100693.06
2023-01-06T05:19:04.748Z,100690.59
2023-01-06T05:21:33.748Z,100687.69
2023-01-06T05:24:02.962Z,100692.41
2023-01-06T05:26:32.048Z,100704.78
2023-01-06T05:29:01.089Z,100706.28
2023-01-06T05:31:31.208Z,100720.84
2023-01-06T05:34:00.284Z,100722.19
2023-01-06T05:36:29.457Z,100715.44
2023-01-06T05:38:58.609Z,100716.09
2023-01-06T05:41:27.637Z,100711.56
2023-01-06T05:43:56.493Z,100713.78
2023-01-06T05:46:25.547Z,100716.69
2023-01-06T05:48:55.942Z,100727.03
2023-01-06T05:51:25.087Z,100733.03
2023-01-06T05:53:54.082Z,100732.41
2023-01-06T05:56:24.262Z,100739.13
2023-01-06T05:58:54.128Z,100735.69
2023-01-06T06:01:23.262Z,100745.66
2023-01-06T06:03:55.451Z,100751.06
2023-01-06T06:06:26.273Z,100757.91
2023-01-06T06:08:55.585Z,100752.69
2023-01-06T06:11:24.602Z,100755.72
2023-01-06T06:13:55.020Z,100762.31
2023-01-06T06:16:25.772Z,100761.13
2023-01-06T06:18:57.653Z,100761.53
2023-01-06T06:21:28.226Z,100754.56
2023-01-06T06:23:58.689Z,100753.09
2023-01-06T06:26:28.014Z,100755.31
2023-01-06T06:28:56.884Z,100763.44
2023-01-06T06:31:27.369Z,100765.50
2023-01-06T06:33:59.398Z,100769.47
2023-01-06T06:36:28.721Z,100770.00
2023-01-06T06:38:58.430Z,100797.84
2023-01-06T06:41:27.632Z,100793.28
2023-01-06T06:43:56.535Z,100810.03
2023-01-06T06:46:25.533Z,100811.94
2023-01-06T06:48:54.553Z,100817.75
2023-01-06T06:51:25.547Z,100817.19
2023-01-06T06:53:54.603Z,100816.97
2023-01-06T06:56:23.645Z,100823.47
2023-01-06T06:58:52.337Z,100827.06
2023-01-06T07:01:22.307Z,100828.31
2023-01-06T07:03:51.498Z,100825.81
2023-01-06T07:06:23.173Z,100831.25
2023-01-06T07:08:53.643Z,100840.22
2023-01-06T07:11:22.977Z,100837.34
2023-01-06T07:13:51.540Z,100838.41
2023-01-06T07:16:23.290Z,100843.78
2023-01-06T07:18:52.465Z,100835.44
2023-01-06T07:21:21.477Z,100831.81
2023-01-06T07:23:50.644Z,100836.84
2023-01-06T07:26:21.102Z,100838.28
2023-01-06T07:28:49.710Z,100837.16
2023-01-06T07:31:18.724Z,100845.75
2023-01-06T07:33:47.725Z,100837.72
2023-01-06T07:36:16.690Z,100830.63
2023-01-06T07:38:45.735Z,100832.31
2023-01-06T07:41:14.686Z,100829.94
2023-01-06T07:43:44.806Z,100822.06
2023-01-06T07:46:13.888Z,100826.94
2023-01-06T07:48:42.940Z,100835.34
2023-01-06T07:51:12.013Z,100826.09
2023-01-06T07:53:41.110Z,100830.81
2023-01-06T07:56:10.043Z,100838.66
2023-01-06T07:58:38.689Z,100845.84
2023-01-06T08:01:10.002Z,100849.66
2023-01-06T08:03:39.088Z,100853.75
2023-01-06T08:06:10.061Z,100853.81
2023-01-06T08:08:39.691Z,100865.53
2023-01-06T08:11:11.528Z,100861.28
2023-01-06T08:13:40.518Z,100862.16
2023-01-06T08:16:12.348Z,100865.91
2023-01-06T08:18:41.717Z,100855.84
2023-01-06T08:21:12.553Z,100857.53
2023-01-06T08:23:41.653Z,100860.41
2023-01-06T08:26:13.598Z,100857.31
2023-01-06T08:28:42.379Z,100863.75
2023-01-06T08:31:14.522Z,100855.25
2023-01-06T08:33:44.152Z,100857.06
2023-01-06T08:36:15.101Z,100862.03
2023-01-06T08:38:44.410Z,100869.69
2023-01-06T08:41:13.723Z,100874.25
2023-01-06T08:43:45.588Z,100874.03
2023-01-06T08:46:17.873Z,100875.41
2023-01-06T08:48:47.199Z,100871.22
2023-01-06T08:51:19.166Z,100874.88
2023-01-06T08:53:48.822Z,100870.03
2023-01-06T08:56:19.089Z,100869.41
2023-01-06T08:58:52.690Z,100865.59
2023-01-06T09:01:25.083Z,100876.78
2023-01-06T09:03:54.311Z,100872.22
2023-01-06T09:06:23.853Z,100876.09
2023-01-06T09:08:53.738Z,100877.97
2023-01-06T09:11:23.043Z,100869.91
2023-01-06T09:13:52.254Z,100872.94
2023-01-06T09:16:24.170Z,100884.97
2023-01-06T09:18:53.507Z,100885.31
2023-01-06T09:21:24.077Z,100884.16
2023-01-06T09:23:53.101Z,100871.56
2023-01-06T09:26:22.336Z,100869.47
2023-01-06T09:28:51.456Z,100866.97
2023-01-06T09:31:20.544Z,100867.34
2023-01-06T09:33:51.145Z,100872.75
2023-01-06T09:36:20.198Z,100871.81
2023-01-06T09:38:49.160Z,100860.66
2023-01-06T09:42:02.222Z,100865.66
2023-01-06T09:44:33.226Z,100873.41
2023-01-06T09:47:03.560Z,100872.13
2023-01-06T09:49:37.504Z,100876.91
2023-01-06T09:52:11.520Z,100877.28
2023-01-06T09:54:44.715Z,100871.13
2023-01-06T09:57:17.233Z,100861.53
2023-01-06T09:59:50.126Z,100858.19
2023-01-06T10:02:23.231Z,100856.94
2023-01-06T10:04:53.401Z,100854.47
2023-01-06T10:07:28.888Z,100854.78
2023-01-06T10:10:04.336Z,100859.69
2023-01-06T10:12:47.653Z,100853.84
2023-01-06T10:15:20.887Z,100852.22
2023-01-06T10:18:02.630Z,100851.31
2023-01-06T10:21:03.828Z,100852.34
2023-01-06T10:23:42.136Z,100851.31
2023-01-06T10:26:14.503Z,100848.75
2023-01-06T10:28:44.422Z,100842.00
2023-01-06T10:31:13.793Z,100846.72
2023-01-06T10:33:45.710Z,100845.13
2023-01-06T10:36:18.531Z,100845.16
2023-01-06T10:38:49.358Z,100840.53
2023-01-06T10:41:24.408Z,100835.28
2023-01-06T10:43:53.316Z,100837.81
2023-01-06T10:46:22.590Z,100834.13
2023-01-06T10:48:52.293Z,100831.66
2023-01-06T10:51:38.491Z,100833.53
2023-01-06T10:54:10.480Z,100824.56
2023-01-06T10:56:40.448Z,100830.09
2023-01-06T10:59:11.309Z,100821.56
2023-01-06T11:01:50.549Z,100810.66
2023-01-06T11:04:20.061Z,100806.78
2023-01-06T11:06:53.664Z,100813.94
2023-01-06T11:09:32.083Z,100801.72
2023-01-06T11:12:02.818Z,100808.63
2023-01-06T11:14:33.444Z,100802.63
2023-01-06T11:17:04.084Z,100814.25
2023-01-06T11:19:40.211Z,100799.28
2023-01-06T11:22:35.315Z,100800.06
2023-01-06T11:25:29.615Z,100789.56
2023-01-06T11:28:20.654Z,100785.41
2023-01-06T11:30:53.114Z,100780.66
2023-01-06T11:33:25.355Z,100785.38
2023-01-06T11:35:54.628Z,100783.41
2023-01-06T11:38:25.656Z,100784.56
2023-01-06T11:40:55.398Z,100768.22
2023-01-06T11:43:25.473Z,100761.13
2023-01-06T11:45:57.639Z,100763.75
2023-01-06T11:48:29.833Z,100761.50
2023-01-06T11:51:00.494Z,100764.13
2023-01-06T11:53:31.478Z,100759.72
2023-01-06T11:56:02.696Z,100756.16
2023-01-06T11:58:41.394Z,100757.97
2023-01-06T12:01:15.275Z,100765.28
2023-01-06T12:03:46.119Z,100761.84
2023-01-06T12:06:27.541Z,100756.13
2023-01-06T12:09:02.565Z,100753.84
2023-01-06T12:11:40.906Z,100751.69
2023-01-06T12:14:27.448Z,100744.03
2023-01-06T12:17:05.089Z,100747.31
2023-01-06T12:19:39.250Z,100749.06
2023-01-06T12:22:19.265Z,100751.38
2023-01-06T12:24:50.581Z,100746.78
2023-01-06T12:27:25.537Z,100749.13
2023-01-06T12:29:56.929Z,100744.72
2023-01-06T12:32:29.199Z,100748.81
2023-01-06T12:35:01.436Z,100747.66
2023-01-06T12:37:34.248Z,100736.13
2023-01-06T12:40:10.607Z,100733.41
2023-01-06T12:42:45.038Z,100738.03
2023-01-06T12:45:17.036Z,100725.91
2023-01-06T12:47:48.798Z,100724.69
2023-01-06T12:50:22.450Z,100722.34
2023-01-06T12:52:53.373Z,100737.88
2023-01-06T12:55:30.604Z,100734.44
2023-01-06T12:58:02.524Z,100735.13
2023-01-06T13:00:42.737Z,100743.97
2023-01-06T13:03:47.157Z,100746.31
2023-01-06T13:06:26.059Z,100738.44
2023-01-06T13:09:16.173Z,100742.94
2023-01-06T13:12:02.410Z,100744.28
2023-01-06T13:14:37.246Z,100739.81
2023-01-06T13:17:09.846Z,100738.94
2023-01-06T13:19:44.427Z,100736.88
2023-01-06T13:22:17.463Z,100734.53
2023-01-06T13:24:54.679Z,100726.22
2023-01-06T13:27:46.173Z,100729.38
2023-01-06T13:30:28.026Z,100711.16
2023-01-06T13:33:09.537Z,100708.94
2023-01-06T13:35:51.972Z,100707.81
2023-01-06T13:38:44.574Z,100712.53
2023-01-06T13:41:16.692Z,100708.38
2023-01-06T13:43:50.400Z,100703.69
2023-01-06T13:46:20.631Z,100701.38
2023-01-06T13:48:50.954Z,100683.94
2023-01-06T13:51:25.238Z,100681.84
2023-01-06T13:53:54.904Z,100672.53
2023-01-06T13:56:26.153Z,100667.91
2023-01-06T13:59:20.504Z,100663.78
2023-01-06T14:01:50.067Z,100662.31
2023-01-06T14:04:47.360Z,100649.88
2023-01-06T14:07:16.811Z,100649.81
2023-01-06T14:09:50.559Z,100638.75
2023-01-06T14:12:22.664Z,100648.25
2023-01-06T14:15:01.734Z,100646.28
2023-01-06T14:17:33.313Z,100659.28
2023-01-06T14:20:02.386Z,100647.09
2023-01-06T14:22:32.115Z,100657.16
2023-01-06T14:25:03.266Z,100656.16
2023-01-06T14:28:07.184Z,100661.81
2023-01-06T14:30:38.324Z,100676.09
2023-01-06T14:33:26.818Z,100690.63
2023-01-06T14:36:03.446Z,100681.44
2023-01-06T14:38:36.592Z,100685.06
2023-01-06T14:41:08.025Z,100694.97
2023-01-06T14:43:44.042Z,100693.81
2023-01-06T14:46:20.536Z,100706.22
2023-01-06T14:48:55.018Z,100699.63
2023-01-06T14:51:24.281Z,100698.06
2023-01-06T14:54:01.094Z,100698.81
2023-01-06T14:56:31.755Z,100700.88
2023-01-06T14:59:10.760Z,100693.34
2023-01-06T15:01:43.766Z,100689.84
2023-01-06T15:04:25.007Z,100681.97
2023-01-06T15:07:02.926Z,100685.63
2023-01-06T15:09:32.045Z,100679.78
2023-01-06T15:12:01.024Z,100665.06
2023-01-06T15:14:32.137Z,100658.88
2023-01-06T15:17:04.679Z,100646.47
2023-01-06T15:19:33.741Z,100645.66
2023-01-06T15:22:08.388Z,100627.59
2023-01-06T15:24:39.618Z,100626.16
2023-01-06T15:27:10.145Z,100626.06
2023-01-06T15:29:39.176Z,100635.66
2023-01-06T15:32:14.346Z,100625.41
2023-01-06T15:34:45.830Z,100621.56
2023-01-06T15:37:20.003Z,100621.03
2023-01-06T15:39:49.320Z,100616.41
2023-01-06T15:42:22.239Z,100617.06
2023-01-06T15:44:58.262Z,100599.50
2023-01-06T15:47:34.444Z,100606.88
2023-01-06T15:50:04.512Z,100622.47
2023-01-06T15:52:35.304Z,100618.31
2023-01-06T15:55:06.842Z,100613.91
2023-01-06T15:57:38.357Z,100612.22
2023-01-06T16:00:10.130Z,100614.97
2023-01-06T16:02:40.646Z,100609.06
2023-01-06T16:05:40.734Z,100610.88
2023-01-06T16:08:18.379Z,100608.06
2023-01-06T16:10:47.926Z,100605.81
2023-01-06T16:13:25.715Z,100599.78
2023-01-06T16:15:58.429Z,100593.63
2023-01-06T16:18:31.190Z,100587.13
2023-01-06T16:21:01.651Z,100595.94
2023-01-06T16:23:34.141Z,100597.69
2023-01-06T16:26:05.947Z,100577.31
2023-01-06T16:28:34.851Z,100578.56
2023-01-06T16:31:09.413Z,100585.56
2023-01-06T16:33:45.887Z,100579.56
2023-01-06T16:36:16.804Z,100578.78
2023-01-06T16:38:46.175Z,100561.06
2023-01-06T16:41:17.983Z,100564.84
2023-01-06T16:43:47.401Z,100570.69
2023-01-06T16:46:20.868Z,100553.72
2023-01-06T16:48:52.426Z,100544.59
2023-01-06T16:51:21.765Z,100547.41
2023-01-06T16:53:51.043Z,100541.53
2023-01-06T16:56:22.911Z,100544.16
2023-01-06T16:58:52.117Z,100543.34
2023-01-06T17:01:22.835Z,100547.41
2023-01-06T17:03:57.160Z,100540.41
2023-01-06T17:06:28.373Z,100539.34
2023-01-06T17:09:00.122Z,100529.03
2023-01-06T17:11:31.741Z,100536.19
2023-01-06T17:14:03.598Z,100530.28
2023-01-06T17:16:33.866Z,100515.19
2023-01-06T17:19:10.417Z,100523.06
2023-01-06T17:21:40.547Z,100517.47
2023-01-06T17:24:13.696Z,100519.06
2023-01-06T17:26:43.003Z,100519.56
2023-01-06T17:29:15.038Z,100516.88
2023-01-06T17:31:46.041Z,100508.88
2023-01-06T17:34:21.353Z,100514.84
2023-01-06T17:36:52.193Z,100517.41
2023-01-06T17:39:23.513Z,100517.91
2023-01-06T17:42:00.889Z,100515.75
2023-01-06T17:44:35.965Z,100521.47
2023-01-06T17:47:10.422Z,100516.38
2023-01-06T17:49:40.697Z,100511.72
2023-01-06T17:52:16.916Z,100502.69
2023-01-06T17:55:13.452Z,100490.44
2023-01-06T17:57:46.265Z,100492.94
2023-01-06T18:00:25.277Z,100482.44
2023-01-06T18:02:56.979Z,100486.53
2023-01-06T18:05:55.809Z,100480.03
2023-01-06T18:08:25.706Z,100476.13
2023-01-06T18:10:56.854Z,100485.59
2023-01-06T18:13:29.707Z,100484.44
2023-01-06T18:15:59.614Z,100473.59
2023-01-06T18:18:31.182Z,100469.66
2023-01-06T18:21:05.185Z,100462.72
2023-01-06T18:23:35.473Z,100452.41
2023-01-06T18:26:31.228Z,100449.31
2023-01-06T18:29:03.074Z,100462.69
2023-01-06T18:31:35.520Z,100474.66
2023-01-06T18:34:33.894Z,100468.97
2023-01-06T18:37:04.690Z,100473.28
2023-01-06T18:39:41.185Z,100452.16
2023-01-06T18:42:29.235Z,100443.03
2023-01-06T18:45:19.611Z,100427.78
2023-01-06T18:47:52.671Z,100430.72
2023-01-06T18:50:29.076Z,100418.84
2023-01-06T18:53:00.042Z,100411.28
2023-01-06T18:55:35.524Z,100423.34
2023-01-06T18:58:14.677Z,100415.81
2023-01-06T19:00:46.656Z,100421.19
2023-01-06T19:03:38.668Z,100410.66
2023-01-06T19:06:40.801Z,100399.34
2023-01-06T19:09:18.852Z,100389.44
2023-01-06T19:11:48.599Z,100403.09
2023-01-06T19:14:19.595Z,100391.50
2023-01-06T19:16:52.153Z,100390.69
2023-01-06T19:19:25.047Z,100396.59
2023-01-06T19:21:58.646Z,100387.78
2023-01-06T19:24:42.343Z,100396.81
2023-01-06T19:27:36.470Z,100383.47
2023-01-06T19:30:47.922Z,100385.66
2023-01-06T19:33:38.865Z,100394.34
2023-01-06T19:36:29.491Z,100390.53
2023-01-06T19:38:59.047Z,100386.97
2023-01-06T19:41:32.002Z,100383.81
2023-01-06T19:44:07.740Z,100381.53
2023-01-06T19:46:38.777Z,100373.09
2023-01-06T19:49:14.357Z,100374.13
2023-01-06T19:51:43.674Z,100376.84
2023-01-06T19:54:25.759Z,100372.31
2023-01-06T19:56:57.498Z,100364.97
2023-01-06T19:59:29.466Z,100365.56
2023-01-06T20:02:01.185Z,100358.19
2023-01-06T20:04:31.448Z,100359.41
2023-01-06T20:07:02.502Z,100356.59
2023-01-06T20:09:33.656Z,100368.06
2023-01-06T20:12:05.003Z,100364.88
2023-01-06T20:14:34.179Z,100360.75
2023-01-06T20:17:03.492Z,100352.72
2023-01-06T20:19:32.284Z,100359.22
2023-01-06T20:22:01.314Z,100368.13
2023-01-06T20:24:30.701Z,100363.69
2023-01-06T20:26:59.748Z,100363.75
2023-01-06T20:29:30.474Z,100361.66
2023-01-06T20:32:00.045Z,100368.69
2023-01-06T20:34:28.847Z,100379.38
2023-01-06T20:36:59.472Z,100384.03
2023-01-06T20:39:29.782Z,100373.66
2023-01-06T20:42:00.465Z,100376.03
2023-01-06T20:44:31.142Z,100354.63
2023-01-06T20:47:00.343Z,100378.16
2023-01-06T20:49:29.048Z,100383.81
2023-01-06T20:51:58.056Z,100390.03
2023-01-06T20:54:27.232Z,100394.72
2023-01-06T20:56:56.268Z,100383.94
2023-01-06T20:59:25.305Z,100382.97
2023-01-06T21:01:55.716Z,100384.84
2023-01-06T21:04:24.926Z,100387.13
2023-01-06T21:06:54.092Z,100388.22
2023-01-06T21:09:28.224Z,100388.22
2023-01-06T21:11:57.445Z,100389.72
2023-01-06T21:14:26.420Z,100389.91
2023-01-06T21:16:56.655Z,100388.44
2023-01-06T21:19:25.713Z,100371.75
2023-01-06T21:21:54.785Z,100390.25
2023-01-06T21:24:23.825Z,100381.94
2023-01-06T21:26:53.150Z,100373.31
2023-01-06T21:29:22.647Z,100379.44
2023-01-06T21:31:51.440Z,100380.38
2023-01-06T21:34:21.967Z,100377.63
2023-01-06T21:36:51.027Z,100376.88
2023-01-06T21:39:20.061Z,100374.06
2023-01-06T21:42:06.400Z,100367.38
2023-01-06T21:44:35.627Z,100374.03
2023-01-06T21:47:05.094Z,100378.75
2023-01-06T21:49:35.360Z,100376.38
2023-01-06T21:52:04.754Z,100375.84
2023-01-06T21:54:36.640Z,100377.91
2023-01-06T21:57:05.744Z,100378.56
2023-01-06T21:59:34.854Z,100374.41
2023-01-06T22:02:04.116Z,100376.19
2023-01-06T22:04:34.604Z,100377.09
2023-01-06T22:07:06.060Z,100376.19
2023-01-06T22:09:35.306Z,100383.63
2023-01-06T22:12:05.569Z,100390.41
2023-01-06T22:14:34.281Z,100387.25
2023-01-06T22:17:03.602Z,100396.00
2023-01-06T22:19:32.500Z,100393.91
2023-01-06T22:22:03.160Z,100391.28
2023-01-06T22:24:33.494Z,100402.19
2023-01-06T22:27:02.756Z,100390.47
2023-01-06T22:29:31.944Z,100395.13
2023-01-06T22:32:03.535Z,100388.72
2023-01-06T22:34:32.371Z,100395.47
2023-01-06T22:37:02.823Z,100401.06
2023-01-06T22:39:31.875Z,100403.44
2023-01-06T22:42:01.318Z,100401.13
2023-01-06T22:44:30.308Z,100405.38
2023-01-06T22:46:59.240Z,100411.13
2023-01-06T22:49:27.922Z,100407.72
2023-01-06T22:51:56.779Z,100407.84
2023-01-06T22:54:27.375Z,100408.91
2023-01-06T22:56:56.370Z,100408.66
2023-01-06T22:59:25.301Z,100398.66
2023-01-06T23:01:54.038Z,100401.50
2023-01-06T23:04:23.109Z,100406.44
2023-01-06T23:06:52.262Z,100410.72
2023-01-06T23:09:21.274Z,100409.59
2023-01-06T23:11:51.764Z,100411.41
2023-01-06T23:14:20.935Z,100415.03
2023-01-06T23:16:49.850Z,100408.41
2023-01-06T23:19:18.947Z,100423.00
2023-01-06T23:21:48.002Z,100423.31
2023-01-06T23:24:17.113Z,100426.88
2023-01-06T23:26:48.523Z,100435.78
2023-01-06T23:29:19.079Z,100441.41
2023-01-06T23:31:47.632Z,100438.19
2023-01-06T23:34:17.810Z,100444.41
2023-01-06T23:36:46.644Z,100439.16
2023-01-06T23:39:16.997Z,100442.44
2023-01-06T23:41:46.106Z,100442.19
2023-01-06T23:44:16.640Z,100440.00
2023-01-06T23:46:46.649Z,100448.88
2023-01-06T23:49:17.566Z,100459.50
2023-01-06T23:51:46.786Z,100458.34
2023-01-06T23:54:16.329Z,100456.16
2023-01-06T23:56:45.477Z,100455.34
2023-01-06T23:59:14.621Z,100453.50
